Des Moines International Airport
KDSM : now visible

Airfield :











YOU CAN JOIN US ON...

 
LOGIN :

Register | Disclaimer

   EN    FR    IT 

 









Legend :    VFR   Marginal VFR   IFR   Intensive IFR   Very Intensive IFR
Visi :
Ceiling :
>= 8 km
>= 3000ft
5 to 8 km
1000 to 3000 ft
1500m to 5 km
500 to 1000 ft
800 to 1500m
200 to 500 ft
< 800m
< 200 ft
Symbols :   Thunderstorms  Fog  Heavy snow  Heavy precipitations  Wind > 20 kt






- Airport Elevation : 958 ft
- IATA code : DSM


KDSM - Des Moines International

CURRENT METAR :
  • 161154Z 10SM BKN200 22/18 A2986 RMK AO2 SLP104 T02220183 10244 20217 53017

EXPIRED METARs :
  • 161054Z 36006KT 10SM FEW200 22/19 A2983 RMK AO2 SLP093 T02220194
  • 160954Z 35007G16KT 10SM FEW030 23/20 A2982 RMK AO2 SLP089 T02280200
  • 160854Z 36010KT 10SM FEW035 FEW200 23/21 A2981 RMK AO2 SLP084 T02330206 53002
  • 160754Z 36010KT 10SM CLR 24/21 A2981 RMK AO2 SLP082 T02390211

TAF KDSM
Valid from the 16 at 12:00 until the 17 at 12:00 UTC


161120Z 1612/1712 36008KT P6SM BKN150
KZMP FIR / North America



MET'MAP, your aeronautical weather chart ! - Copyright ORBIFLY December 2007 - Disclaimer

ORBIFLY MET'MAP TEAM :

Programming & Development : Alexandra Zaïnal
Original concept : Baudouin d'Aumeries
Technical & hardware support : Manuel Goepfert
Assistance : Marc-Olivier Méhu




SOURCES & CREDITS :

   NOAA       Earth
Advisory